Time;durP1;ratioP1;P1;durP2;ratioP2;P2;SDS_P1;SDS_P2;PMS_P1;PMS_P2;Temp;Humidity;BMP_temperature;BMP_pressure;BME280_temperature;BME280_humidity;BME280_pressure;Samples;Min_cycle;Max_cycle;Signal;HPM_P1;HPM_P2
2022/01/05 07:52:55;;;;;;;0.60;0.60;;;15.00;60.60;;;14.77;62.52;98114.88;5110368;27;20918;-44
2022/01/05 07:55:21;;;;;;;0.70;0.70;;;15.00;63.30;;;14.90;64.31;98130.75;5089770;28;20229;-42
2022/01/05 07:57:46;;;;;;;0.63;0.63;;;15.00;65.60;;;15.07;65.26;98139.28;5089309;28;20190;-40
2022/01/05 08:00:13;;;;;;;0.68;0.60;;;15.10;67.10;;;15.17;65.95;98135.47;5055878;28;20585;-40
2022/01/05 08:02:39;;;;;;;1.45;0.65;;;15.20;68.20;;;15.42;65.50;98153.53;5089132;28;20583;-40
2022/01/05 08:05:07;;;;;;;0.70;0.70;;;15.40;68.90;;;15.53;66.26;98151.38;5072691;28;20188;-40
2022/01/05 08:07:32;;;;;;;0.70;0.70;;;15.50;69.40;;;15.69;66.35;98147.06;5072630;28;20182;-41
2022/01/05 08:09:58;;;;;;;0.50;0.50;;;15.70;70.60;;;15.98;66.32;98178.38;5089045;28;20328;-41
2022/01/05 08:12:24;;;;;;;1.40;0.80;;;15.80;70.00;;;16.13;66.33;98181.84;5089794;28;20245;-40
2022/01/05 08:14:50;;;;;;;0.63;0.63;;;15.90;70.20;;;16.15;66.30;98168.63;5090080;28;20190;-41
2022/01/05 08:17:16;;;;;;;0.55;0.55;;;16.10;70.40;;;16.40;66.34;98193.47;5088778;28;20284;-40
2022/01/05 08:19:42;;;;;;;0.63;0.63;;;16.20;70.60;;;16.51;66.65;98187.03;5089129;28;20661;-40
2022/01/05 08:22:09;;;;;;;0.55;0.55;;;16.30;70.80;;;16.65;66.74;98196.69;5088593;28;20536;-42
2022/01/05 08:24:35;;;;;;;0.65;0.65;;;16.40;70.90;;;16.69;66.32;98196.16;5089081;28;20635;-40
2022/01/05 08:27:00;;;;;;;0.70;0.70;;;16.60;71.00;;;16.81;66.46;98206.94;5089790;28;20201;-40
2022/01/05 08:29:26;;;;;;;0.52;0.52;;;16.60;71.00;;;16.87;66.90;98214.06;5088738;28;20203;-41
2022/01/05 08:31:52;;;;;;;0.70;0.70;;;16.70;71.20;;;16.94;67.18;98219.34;5071801;28;20210;-41
2022/01/05 08:34:18;;;;;;;0.57;0.57;;;16.80;71.30;;;16.96;67.67;98226.00;5088824;28;20213;-39
2022/01/05 08:36:44;;;;;;;0.63;0.63;;;16.80;71.50;;;16.95;67.78;98218.38;5089787;28;20201;-40
2022/01/05 08:39:10;;;;;;;0.85;0.85;;;16.90;71.70;;;16.86;67.97;98211.63;5088443;28;20186;-39
2022/01/05 08:41:36;;;;;;;0.57;0.57;;;16.90;71.90;;;17.01;68.03;98239.28;5071795;28;20190;-39
2022/01/05 08:44:02;;;;;;;0.60;0.60;;;16.90;72.00;;;17.04;68.36;98240.75;5089622;28;20592;-40
2022/01/05 08:46:28;;;;;;;0.80;0.65;;;16.90;72.20;;;17.07;68.58;98242.97;5089560;28;20354;-40
2022/01/05 08:48:54;;;;;;;0.65;0.65;;;17.00;72.50;;;17.10;68.51;98245.22;5089842;28;20182;-40
2022/01/05 08:51:20;;;;;;;0.63;0.63;;;17.00;72.60;;;17.13;68.63;98253.47;5089428;28;20229;-40
2022/01/05 08:53:46;;;;;;;0.73;0.73;;;17.00;72.60;;;17.14;68.79;98259.50;5089464;28;20187;-40
2022/01/05 08:56:12;;;;;;;0.63;0.63;;;17.10;72.80;;;17.16;68.83;98267.16;5087938;28;20524;-41
2022/01/05 08:58:38;;;;;;;1.25;0.70;;;17.10;72.80;;;17.22;68.78;98275.03;5088058;28;20190;-40
2022/01/05 09:01:05;;;;;;;0.70;0.70;;;17.10;72.80;;;17.26;68.87;98267.69;5088349;28;20194;-41
2022/01/05 09:03:31;;;;;;;0.60;0.60;;;17.20;72.90;;;17.65;67.83;98275.22;5061865;28;20195;-42
2022/01/05 09:05:57;;;;;;;0.60;0.60;;;17.40;73.10;;;18.04;66.54;98283.50;5074825;28;20190;-40
2022/01/05 09:08:23;;;;;;;0.70;0.70;;;17.60;72.70;;;18.25;65.34;98287.94;5075450;28;20186;-37
2022/01/05 09:10:48;;;;;;;0.70;0.70;;;17.90;72.00;;;18.06;65.66;98262.44;5074355;28;20210;-38
2022/01/05 09:13:16;;;;;;;0.57;0.57;;;18.10;71.20;;;18.12;65.68;98293.81;5075282;28;20198;-38
2022/01/05 09:15:42;;;;;;;0.63;0.63;;;18.10;71.00;;;18.08;66.28;98299.59;5075729;28;20202;-38
2022/01/05 09:18:08;;;;;;;0.50;0.50;;;18.10;70.90;;;18.14;66.32;98299.66;5074568;28;20179;-38
2022/01/05 09:20:34;;;;;;;0.45;0.45;;;18.20;71.20;;;18.11;66.67;98307.88;5057295;28;20198;-39
2022/01/05 09:23:02;;;;;;;0.47;0.47;;;18.20;71.40;;;18.10;66.86;98311.50;5074581;28;20274;-38
2022/01/05 09:25:28;;;;;;;0.73;0.73;;;18.20;71.50;;;18.07;66.95;98304.00;5074215;28;20195;-39
2022/01/05 09:27:54;;;;;;;0.52;0.52;;;18.20;71.60;;;18.22;67.01;98322.22;5057950;28;20191;-38
2022/01/05 09:30:22;;;;;;;0.70;0.63;;;18.30;71.70;;;18.22;67.31;98328.28;5075399;28;20550;-38
2022/01/05 09:32:48;;;;;;;0.50;0.50;;;18.30;71.70;;;18.27;67.21;98340.78;5075719;28;20242;-39
2022/01/05 09:35:17;;;;;;;0.50;0.50;;;18.30;71.70;;;18.20;67.04;98321.63;5073745;28;20276;-38
2022/01/05 09:37:55;;;;;;;1.45;0.40;;;18.40;71.80;;;18.39;66.48;98349.72;5090977;28;20179;-36
2022/01/05 09:43:07;;;;;;;0.73;0.73;;;18.50;71.80;;;18.24;66.68;98322.88;5074068;28;20328;-36
2022/01/05 09:45:35;;;;;;;0.50;0.50;;;18.50;71.70;;;18.53;66.68;98371.59;5057159;28;20210;-37
2022/01/05 09:48:22;;;;;;;0.60;0.60;;;18.60;71.60;;;18.54;66.61;98371.38;5041021;28;20190;-36
2022/01/05 09:51:12;;;;;;;0.60;0.60;;;18.60;71.50;;;18.59;66.38;98370.88;5073781;28;20276;-38
2022/01/05 09:53:38;;;;;;;0.60;0.60;;;18.70;71.60;;;18.60;66.00;98365.47;5074072;28;20202;-38
2022/01/05 09:56:05;;;;;;;0.40;0.40;;;18.70;71.40;;;18.58;66.45;98353.56;5057482;28;20205;-38
2022/01/05 09:58:32;;;;;;;0.60;0.60;;;18.70;71.30;;;18.67;66.13;98362.91;5040147;28;20229;-38
2022/01/05 10:00:59;;;;;;;0.68;0.65;;;18.80;71.40;;;18.74;66.07;98376.03;5056708;28;20627;-37
2022/01/05 10:03:25;;;;;;;0.60;0.60;;;18.80;71.30;;;18.66;65.91;98361.28;5073451;28;20632;-37
2022/01/05 10:05:51;;;;;;;0.52;0.52;;;18.80;71.20;;;18.67;65.71;98343.81;5057065;28;20191;-38
2022/01/05 10:08:17;;;;;;;0.57;0.57;;;18.90;71.20;;;18.86;65.61;98372.72;5073061;28;20195;-38
2022/01/05 10:10:43;;;;;;;0.60;0.60;;;18.90;71.20;;;18.89;65.47;98377.56;5057037;28;20209;-38
2022/01/05 10:13:09;;;;;;;0.65;0.65;;;18.90;71.00;;;18.78;65.49;98374.63;5074371;28;20639;-37
2022/01/05 10:15:35;;;;;;;0.60;0.60;;;18.90;70.90;;;18.85;65.32;98375.53;5055489;28;20195;-40
2022/01/05 10:18:22;;;;;;;0.60;0.60;;;19.00;70.90;;;18.84;65.57;98382.56;5056779;28;20198;-37
2022/01/05 10:21:05;;;;;;;0.50;0.50;;;18.90;70.70;;;18.60;65.37;98339.34;5074545;28;20296;-38
2022/01/05 10:23:45;;;;;;;0.50;0.50;;;19.00;70.70;;;18.94;65.09;98397.94;5040126;28;20222;-39
2022/01/05 10:26:24;;;;;;;0.60;0.60;;;19.00;70.60;;;18.89;65.36;98402.91;5073107;28;20187;-39
2022/01/05 10:28:58;;;;;;;0.50;0.50;;;19.00;70.60;;;18.89;65.27;98400.28;5074359;28;20179;-38
2022/01/05 10:31:30;;;;;;;0.57;0.57;;;19.00;70.60;;;18.85;65.42;98399.06;5072720;28;20203;-37
2022/01/05 10:33:56;;;;;;;0.52;0.52;;;19.00;70.60;;;18.78;65.27;98382.47;5074145;28;20199;-39
2022/01/05 10:36:23;;;;;;;0.80;0.65;;;19.00;70.70;;;18.89;65.27;98400.28;5073454;28;20663;-38
2022/01/05 10:38:57;;;;;;;0.60;0.60;;;19.00;70.60;;;18.87;65.46;98399.66;5072784;28;20191;-40
2022/01/05 10:41:26;;;;;;;0.60;0.60;;;19.00;70.60;;;18.71;65.40;98394.69;5072824;28;20171;-39
2022/01/05 10:44:27;;;;;;;0.65;0.65;;;19.00;70.60;;;18.80;65.36;98404.00;5072557;28;20649;-39
2022/01/05 10:46:57;;;;;;;0.70;0.70;;;19.00;70.60;;;18.84;65.43;98416.53;5051820;28;20205;-37
2022/01/05 10:49:31;;;;;;;0.60;0.60;;;18.90;70.60;;;18.85;65.21;98419.97;5069652;28;20239;-40
2022/01/05 10:52:26;;;;;;;0.70;0.70;;;18.90;70.70;;;18.79;65.38;98410.22;5073499;28;20256;-38
2022/01/05 10:54:53;;;;;;;0.40;0.40;;;18.90;70.70;;;18.69;65.50;98397.50;5073081;28;20179;-41
2022/01/05 10:57:19;;;;;;;0.60;0.60;;;18.90;70.90;;;18.91;65.17;98416.59;5039253;28;20179;-40
2022/01/05 10:59:54;;;;;;;0.60;0.60;;;19.00;71.10;;;18.99;64.67;98398.97;5039515;28;20183;-41
2022/01/05 11:02:34;;;;;;;0.60;0.60;;;19.10;71.00;;;19.22;64.00;98424.91;5072264;28;20183;-40
2022/01/05 11:05:09;;;;;;;0.60;0.60;;;19.20;70.50;;;19.34;63.56;98431.25;5074001;28;20183;-40
2022/01/05 11:07:39;;;;;;;0.60;0.60;;;19.40;70.00;;;19.35;62.72;98405.91;5073201;28;20214;-41
2022/01/05 11:10:15;;;;;;;0.65;0.65;;;19.40;69.60;;;19.32;62.61;98401.03;5056283;28;20190;-41
2022/01/05 11:13:01;;;;;;;0.60;0.60;;;19.60;69.20;;;19.58;62.38;98426.59;5073254;28;20287;-40
2022/01/05 11:15:35;;;;;;;0.70;0.70;;;19.60;69.10;;;19.51;62.18;98431.00;5072065;28;20191;-40
2022/01/05 11:18:12;;;;;;;0.60;0.60;;;19.70;68.60;;;19.62;61.27;98448.75;5072266;28;20191;-40
2022/01/05 11:20:42;;;;;;;0.70;0.70;;;19.70;68.30;;;19.65;60.92;98430.88;5073173;28;20189;-40
2022/01/05 11:23:08;;;;;;;0.60;0.60;;;19.70;67.70;;;19.68;61.17;98437.56;5072398;28;20232;-40
2022/01/05 11:25:37;;;;;;;0.50;0.50;;;19.80;67.50;;;19.60;61.55;98435.88;5071527;28;20186;-40
2022/01/05 11:28:05;;;;;;;0.57;0.57;;;19.80;67.50;;;19.63;61.38;98443.34;5055478;28;20187;-39
2022/01/05 11:30:31;;;;;;;0.60;0.60;;;19.80;67.60;;;19.53;61.66;98452.53;5055206;28;20545;-39
2022/01/05 11:32:57;;;;;;;0.68;0.68;;;19.80;67.70;;;19.50;61.57;98447.69;5055597;28;20264;-39
2022/01/05 11:35:23;;;;;;;0.55;0.52;;;19.70;67.60;;;19.58;61.50;98458.00;5071749;28;20546;-39
2022/01/05 11:37:49;;;;;;;0.50;0.50;;;19.70;68.40;;;19.57;61.39;98464.25;5055615;28;20662;-40
2022/01/05 11:40:16;;;;;;;0.70;0.70;;;19.70;68.40;;;19.56;61.48;98475.69;5071988;28;20241;-40
2022/01/05 11:42:42;;;;;;;0.70;0.70;;;19.70;67.60;;;19.48;61.48;98468.81;5054889;28;20214;-40
2022/01/05 11:45:09;;;;;;;0.63;0.63;;;19.70;67.60;;;19.42;61.79;98474.78;5054996;28;20649;-40
2022/01/05 11:47:40;;;;;;;0.85;0.85;;;19.60;67.50;;;19.33;61.88;98473.28;5038392;28;20187;-40
2022/01/05 11:50:14;;;;;;;1.30;0.80;;;19.60;67.70;;;19.24;61.09;98483.06;5071756;28;20266;-42
2022/01/05 11:53:04;;;;;;;3.13;1.00;;;19.50;67.50;;;19.20;61.40;98473.16;5072581;28;20226;-41
2022/01/05 11:55:33;;;;;;;0.82;0.70;;;19.40;67.30;;;19.25;62.09;98474.22;5071467;28;20202;-41
2022/01/05 11:58:20;;;;;;;0.93;0.90;;;19.40;67.60;;;19.24;62.21;98474.41;5072406;28;20220;-42
2022/01/05 12:01:08;;;;;;;1.38;0.88;;;19.40;68.00;;;19.13;62.32;98459.22;5071847;28;20624;-41
2022/01/05 12:04:01;;;;;;;1.35;0.80;;;19.30;68.10;;;19.16;62.76;98469.31;5057759;28;20185;-41
2022/01/05 12:06:32;;;;;;;1.02;0.85;;;19.30;68.40;;;19.13;63.02;98464.44;5072385;28;20543;-41
2022/01/05 12:09:03;;;;;;;0.60;0.60;;;19.30;68.70;;;19.11;63.20;98467.25;5055416;28;20183;-40
2022/01/05 12:11:41;;;;;;;0.77;0.77;;;19.30;69.00;;;19.12;63.30;98462.81;5055119;28;20202;-41
2022/01/05 12:14:34;;;;;;;0.70;0.70;;;19.20;69.20;;;19.16;63.38;98459.66;5073070;28;20182;-40
2022/01/05 12:17:00;;;;;;;0.77;0.77;;;19.20;69.30;;;19.14;63.54;98461.66;5063503;28;20198;-41
2022/01/05 12:19:34;;;;;;;0.70;0.70;;;19.20;69.30;;;19.05;63.39;98461.97;5072717;28;20652;-42
2022/01/05 12:22:18;;;;;;;0.80;0.80;;;19.20;69.40;;;19.09;63.76;98469.25;5071522;28;20231;-42
2022/01/05 12:24:53;;;;;;;1.48;0.80;;;19.20;69.50;;;19.10;63.98;98470.88;5040427;28;20513;-40
2022/01/05 12:27:48;;;;;;;1.15;0.75;;;19.20;69.70;;;19.10;63.84;98470.88;5072743;28;20193;-40
2022/01/05 12:30:17;;;;;;;0.70;0.70;;;19.20;69.70;;;19.04;63.77;98449.88;5067625;28;20199;-41
2022/01/05 12:32:44;;;;;;;0.88;0.77;;;19.20;69.80;;;19.15;63.89;98478.97;5072427;28;20269;-41
2022/01/05 12:35:20;;;;;;;1.10;0.95;;;19.20;69.80;;;19.04;63.78;98448.06;5071535;28;20191;-40
2022/01/05 12:37:56;;;;;;;0.80;0.80;;;19.20;69.80;;;19.20;63.85;98473.97;5055205;28;20281;-40
2022/01/05 12:40:46;;;;;;;1.13;0.70;;;19.20;70.60;;;19.20;63.86;98481.00;5075204;28;20187;-42
2022/01/05 12:43:15;;;;;;;0.77;0.77;;;19.30;69.90;;;19.19;63.85;98480.19;5076182;28;20187;-41
2022/01/05 12:45:54;;;;;;;0.93;0.80;;;19.20;69.80;;;19.14;64.05;98476.53;5075790;28;20257;-39
2022/01/05 12:51:22;;;;;;;0.95;0.85;;;19.20;69.90;;;19.06;63.93;98476.66;5075856;28;20272;-41
2022/01/05 12:54:06;;;;;;;0.63;0.63;;;19.20;69.90;;;18.96;64.11;98463.88;5075958;28;20168;-41
2022/01/05 12:56:41;;;;;;;0.70;0.70;;;19.20;69.90;;;19.10;64.22;98504.88;5059081;28;20232;-39
2022/01/05 12:59:35;;;;;;;1.17;0.80;;;19.20;70.00;;;19.15;64.34;98499.88;5074862;28;20201;-41
2022/01/05 13:02:06;;;;;;;0.80;0.80;;;19.20;70.10;;;19.01;63.90;98477.22;5061104;28;20199;-41
2022/01/05 13:04:32;;;;;;;0.75;0.70;;;19.20;70.10;;;19.10;63.94;98483.94;5058401;28;20651;-42
2022/01/05 13:06:59;;;;;;;1.35;0.80;;;19.20;70.00;;;19.14;64.05;98484.38;5041460;28;20187;-40
2022/01/05 13:09:38;;;;;;;1.35;0.90;;;19.20;70.00;;;19.09;64.26;98489.38;5075630;28;20578;-42
2022/01/05 13:12:09;;;;;;;1.20;0.80;;;19.20;70.00;;;19.02;64.14;98492.69;5058576;28;20279;-40
2022/01/05 13:14:37;;;;;;;0.60;0.60;;;19.20;70.10;;;18.98;64.67;98483.63;5057579;28;20554;-40
2022/01/05 13:17:17;;;;;;;0.68;0.60;;;19.10;70.10;;;18.89;64.60;98463.81;5074627;28;20257;-42
2022/01/05 13:19:47;;;;;;;0.75;0.75;;;19.10;70.30;;;19.02;64.70;98500.53;5075277;28;20562;-41
2022/01/05 13:22:38;;;;;;;1.13;0.80;;;19.10;70.30;;;18.99;64.69;98494.91;5074358;28;20248;-42
2022/01/05 13:25:11;;;;;;;0.82;0.80;;;19.10;71.10;;;18.97;64.58;98500.31;5075489;28;20190;-42
2022/01/05 13:27:49;;;;;;;2.47;0.80;;;19.10;70.30;;;18.80;64.96;98477.19;5057519;28;20559;-41
2022/01/05 13:30:20;;;;;;;0.88;0.68;;;19.10;70.40;;;18.95;64.88;98527.63;5074235;28;20556;-41
2022/01/05 13:32:48;;;;;;;0.55;0.55;;;19.10;70.50;;;18.89;65.01;98534.41;5074992;28;20215;-41
2022/01/05 13:35:23;;;;;;;0.73;0.70;;;19.00;70.50;;;18.86;65.23;98539.19;5073928;28;20226;-41
2022/01/05 13:37:54;;;;;;;0.63;0.63;;;19.00;70.60;;;18.62;65.34;98517.59;5073746;28;20547;-40
2022/01/05 13:40:21;;;;;;;0.73;0.73;;;19.00;70.70;;;18.71;65.72;98552.28;5057577;28;20183;-39
2022/01/05 13:43:00;;;;;;;0.90;0.90;;;18.90;70.80;;;18.52;66.15;98535.34;5074961;28;20198;-41
2022/01/05 13:45:28;;;;;;;0.70;0.70;;;18.90;71.00;;;18.62;66.19;98556.78;5074066;28;20194;-41
2022/01/05 13:47:59;;;;;;;0.88;0.70;;;18.80;71.10;;;18.63;66.24;98561.03;5057517;28;20186;-41
2022/01/05 13:50:32;;;;;;;3.08;0.85;;;18.80;71.30;;;18.56;66.19;98556.69;5057320;28;20209;-40
2022/01/05 13:53:07;;;;;;;0.80;0.80;;;18.80;71.50;;;18.42;65.44;98534.00;5058071;28;20268;-40
2022/01/05 13:55:41;;;;;;;0.70;0.70;;;18.70;71.10;;;18.50;66.17;98568.69;5074739;28;20269;-42
2022/01/05 13:58:11;;;;;;;1.80;1.05;;;18.70;70.90;;;18.43;66.55;98556.53;5074701;28;20240;-41
2022/01/05 14:00:40;;;;;;;0.95;0.85;;;18.70;71.20;;;18.43;66.68;98569.59;5074221;28;20233;-40
2022/01/05 14:03:06;;;;;;;1.27;0.88;;;18.60;71.30;;;18.41;67.01;98554.09;5074585;28;20551;-40
2022/01/05 14:05:32;;;;;;;1.00;0.60;;;18.60;71.60;;;18.28;67.26;98542.66;5040153;28;20191;-41
2022/01/05 14:08:04;;;;;;;0.60;0.60;;;18.60;71.80;;;18.13;67.25;98516.53;5057078;28;20194;-40
2022/01/05 14:10:33;;;;;;;1.50;0.70;;;18.60;71.90;;;18.27;67.47;98543.66;5073312;28;20647;-41
2022/01/05 14:13:01;;;;;;;0.60;0.60;;;18.50;71.90;;;18.35;67.45;98552.19;5057277;28;20234;-40
2022/01/05 14:15:27;;;;;;;0.50;0.50;;;18.50;72.20;;;18.20;67.86;98551.41;5073419;28;20245;-41
2022/01/05 14:18:09;;;;;;;0.80;0.70;;;18.50;72.30;;;18.31;68.16;98569.22;5056541;28;20553;-41
2022/01/05 14:20:52;;;;;;;1.08;1.00;;;18.50;72.30;;;18.24;68.29;98566.50;5074056;28;20179;-41
2022/01/05 14:23:20;;;;;;;0.75;0.70;;;18.50;72.40;;;18.15;68.29;98553.72;5073177;28;20270;-41
2022/01/05 14:25:57;;;;;;;1.45;0.80;;;18.40;72.50;;;18.10;68.76;98553.44;5056839;28;20191;-41
2022/01/05 14:28:28;;;;;;;0.77;0.77;;;18.40;72.70;;;18.20;68.64;98574.91;5073181;28;20272;-41
2022/01/05 14:31:08;;;;;;;2.13;0.80;;;18.40;72.80;;;18.08;68.70;98553.63;5074294;28;20201;-41
2022/01/05 14:33:49;;;;;;;0.65;0.65;;;18.40;72.90;;;18.15;69.10;98574.59;5073920;28;20186;-41
2022/01/05 14:36:27;;;;;;;0.57;0.57;;;18.30;72.90;;;17.99;69.07;98559.09;5072992;28;20598;-41
2022/01/05 14:39:16;;;;;;;0.60;0.60;;;18.30;73.00;;;18.14;69.37;98599.91;5057203;28;20232;-40
2022/01/05 14:41:43;;;;;;;0.68;0.68;;;18.30;73.10;;;18.12;69.36;98596.66;5072747;28;20206;-41
2022/01/05 14:44:31;;;;;;;1.02;0.75;;;18.30;73.20;;;18.12;69.32;98606.28;5072563;28;20212;-41
2022/01/05 14:47:03;;;;;;;0.57;0.57;;;18.30;73.30;;;18.07;69.60;98604.22;5073160;28;20596;-41
2022/01/05 14:49:31;;;;;;;0.73;0.73;;;18.20;73.30;;;18.10;69.70;98597.81;5072634;28;20581;-41
2022/01/05 14:51:58;;;;;;;0.80;0.80;;;18.20;73.40;;;18.04;69.75;98601.94;5073624;28;20254;-41
2022/01/05 14:54:26;;;;;;;1.75;0.80;;;18.20;73.50;;;18.04;70.25;98598.53;5072469;28;20233;-42
2022/01/05 14:56:52;;;;;;;0.70;0.70;;;18.20;73.60;;;17.99;70.17;98601.66;5072359;28;20668;-40
2022/01/05 14:59:18;;;;;;;0.80;0.80;;;18.20;73.70;;;17.92;70.15;98597.34;5055764;28;20546;-43
2022/01/05 15:01:44;;;;;;;0.70;0.70;;;18.20;73.80;;;17.96;70.48;98606.41;5071775;28;20187;-42
2022/01/05 15:04:11;;;;;;;0.70;0.70;;;18.10;73.70;;;17.95;70.28;98603.03;5072516;28;20201;-41
2022/01/05 15:06:37;;;;;;;0.75;0.63;;;18.10;73.80;;;17.80;69.27;98587.31;5072106;28;20733;-40
2022/01/05 15:09:04;;;;;;;0.73;0.73;;;18.10;73.70;;;17.98;69.43;98602.66;5072240;28;20187;-41
2022/01/05 15:11:30;;;;;;;0.82;0.60;;;18.10;73.20;;;17.98;69.97;98613.09;5073773;28;20206;-40
2022/01/05 15:13:56;;;;;;;0.60;0.60;;;18.10;73.40;;;17.96;70.31;98607.22;5072360;28;20194;-41
2022/01/05 15:16:22;;;;;;;0.50;0.50;;;18.10;73.60;;;17.95;70.51;98607.44;5073435;28;20651;-41
2022/01/05 15:18:48;;;;;;;0.60;0.50;;;18.10;73.80;;;17.91;70.68;98603.53;5055376;28;20186;-40
2022/01/05 15:21:14;;;;;;;0.70;0.70;;;18.10;74.00;;;17.90;70.81;98618.38;5055874;28;20182;-40
2022/01/05 15:23:40;;;;;;;0.70;0.70;;;18.10;74.00;;;17.90;71.09;98618.38;5073027;28;20659;-40
2022/01/05 15:26:06;;;;;;;0.73;0.70;;;18.00;74.00;;;17.85;71.06;98607.69;5055614;28;20216;-42
2022/01/05 15:28:32;;;;;;;0.70;0.70;;;18.00;74.10;;;17.84;71.26;98604.25;5055424;28;20209;-39
2022/01/05 15:30:59;;;;;;;0.52;0.50;;;18.00;74.20;;;17.87;71.33;98619.53;5073170;28;20195;-43
2022/01/05 15:33:26;;;;;;;0.88;0.57;;;18.00;74.30;;;17.73;71.30;98602.06;5055472;28;20261;-42
2022/01/05 15:35:52;;;;;;;0.80;0.80;;;18.00;74.40;;;17.68;71.28;98600.97;5038799;28;20209;-41
2022/01/05 15:38:18;;;;;;;0.82;0.73;;;18.00;74.50;;;17.81;71.62;98633.28;5072134;28;20241;-41
2022/01/05 15:40:44;;;;;;;0.63;0.63;;;18.00;74.50;;;17.66;71.44;98611.56;5072985;28;20277;-42
2022/01/05 15:43:10;;;;;;;0.80;0.70;;;18.00;74.50;;;17.82;71.63;98629.72;5072154;28;20191;-41
2022/01/05 15:45:36;;;;;;;0.68;0.68;;;17.90;74.40;;;17.79;71.56;98640.47;5054897;28;20566;-41
2022/01/05 15:48:03;;;;;;;0.75;0.75;;;17.90;74.40;;;17.80;71.45;98634.28;5055265;28;20650;-42
2022/01/05 15:50:31;;;;;;;0.50;0.50;;;17.90;74.50;;;17.78;71.56;98627.63;5071585;28;20183;-42
2022/01/05 15:53:01;;;;;;;1.08;0.80;;;17.90;74.50;;;17.75;71.81;98615.75;5071651;28;20253;-40
2022/01/05 15:55:31;;;;;;;0.73;0.70;;;17.90;74.50;;;17.70;71.96;98605.03;5055255;28;20189;-42
2022/01/05 16:03:44;;;;;;;0.60;0.60;;;17.90;74.80;;;17.68;71.90;98604.38;5071616;28;20258;-42
2022/01/05 16:06:13;;;;;;;1.45;0.85;;;17.90;74.70;;;17.69;71.66;98606.00;5055003;28;20233;-39
2022/01/05 16:08:39;;;;;;;0.60;0.60;;;17.80;74.50;;;17.68;71.87;98608.78;5071321;28;20539;-40
2022/01/05 16:11:05;;;;;;;0.57;0.50;;;17.80;74.50;;;17.62;71.99;98604.28;5071637;28;20194;-39
2022/01/05 16:13:31;;;;;;;0.70;0.70;;;17.80;74.60;;;17.65;72.27;98617.75;5056836;28;20266;-41
2022/01/05 16:15:57;;;;;;;1.02;0.73;;;17.80;74.80;;;17.68;72.21;98614.00;5075123;28;20193;-39
2022/01/05 16:18:23;;;;;;;0.90;0.88;;;17.80;74.90;;;17.69;72.05;98615.63;5075795;28;20205;-41
2022/01/05 16:20:49;;;;;;;0.68;0.68;;;17.80;74.90;;;17.69;72.05;98621.66;5076493;28;20205;-40
2022/01/05 16:23:15;;;;;;;0.60;0.60;;;17.80;74.90;;;17.54;71.92;98602.50;5058923;28;20185;-41
2022/01/05 16:25:41;;;;;;;0.55;0.55;;;17.80;74.80;;;17.75;71.61;98638.41;5042084;28;20256;-40
2022/01/05 16:28:07;;;;;;;0.68;0.68;;;17.80;74.70;;;17.78;71.58;98630.25;5076432;28;20194;-39
2022/01/05 16:30:34;;;;;;;0.80;0.80;;;17.90;74.80;;;17.79;71.45;98637.06;5076918;28;20260;-39
2022/01/05 16:33:01;;;;;;;0.63;0.63;;;17.90;74.70;;;17.78;71.32;98636.28;5076342;28;20215;-41
2022/01/05 16:35:29;;;;;;;0.93;0.73;;;17.90;74.60;;;17.80;71.31;98638.69;5058777;28;20209;-39
2022/01/05 16:37:55;;;;;;;0.80;0.80;;;17.90;74.60;;;17.70;71.29;98610.25;5076239;28;20252;-40
2022/01/05 16:40:22;;;;;;;1.33;0.80;;;17.90;74.50;;;17.82;70.96;98621.06;5058477;28;20187;-39
2022/01/05 16:42:48;;;;;;;0.60;0.60;;;17.90;74.40;;;17.83;71.01;98617.47;5074786;28;20187;-38
2022/01/05 16:45:14;;;;;;;0.32;0.32;;;18.00;74.40;;;17.85;70.79;98625.94;5075957;28;20225;-38
2022/01/05 16:47:40;;;;;;;0.75;0.75;;;18.00;74.30;;;17.90;70.85;98635.84;5075804;28;20182;-37
2022/01/05 16:50:06;;;;;;;0.60;0.60;;;18.00;74.20;;;17.92;70.74;98641.69;5075114;28;20616;-37
2022/01/05 16:52:33;;;;;;;0.60;0.60;;;18.00;74.20;;;17.89;70.85;98640.25;5074429;28;20268;-39
2022/01/05 16:55:11;;;;;;;1.27;0.80;;;18.00;74.20;;;17.86;70.92;98641.44;5075773;28;20270;-40
2022/01/05 17:00:30;;;;;;;0.63;0.63;;;18.00;74.20;;;17.78;70.82;98644.09;5075007;28;20270;-40
2022/01/05 17:02:57;;;;;;;0.90;0.82;;;18.00;74.10;;;17.81;71.15;98648.94;5074616;28;20178;-39
2022/01/05 17:05:24;;;;;;;0.70;0.70;;;18.00;74.20;;;17.87;70.81;98656.06;5041850;28;20554;-40
2022/01/05 17:07:51;;;;;;;0.50;0.50;;;18.00;74.20;;;17.90;70.80;98659.31;5057766;28;20194;-38
2022/01/05 17:10:17;;;;;;;1.55;0.50;;;18.00;74.20;;;17.90;70.89;98661.94;5058033;28;20572;-38
2022/01/05 17:12:43;;;;;;;0.70;0.70;;;18.00;74.10;;;17.80;70.82;98636.06;5057616;28;20210;-39
2022/01/05 17:15:10;;;;;;;0.60;0.60;;;18.10;74.20;;;17.81;71.02;98635.91;5074322;28;20670;-38
2022/01/05 17:17:37;;;;;;;0.75;0.75;;;18.10;74.20;;;17.92;71.07;98654.75;5057981;28;20187;-40
2022/01/05 17:20:04;;;;;;;0.60;0.60;;;18.10;74.20;;;17.96;70.41;98659.44;5074164;28;20226;-39
2022/01/05 17:22:31;;;;;;;0.93;0.70;;;18.10;74.10;;;17.96;70.59;98669.88;5074050;28;20660;-38
